Station Historical Data
Daily Summary for March 8, 2018 Units:  Both    English   Metric
« Previous Day
Next Day »
Daily Weekly Monthly Yearly Custom
  High: Low: Average:
Temperature: 30.7 °F /  -0.7 °C 20.9 °F /  -6.2 °C 27.4 °F /  -2.6 °C
Dew Point: 26.7 °F /  -2.9 °C 17.9 °F /  -7.8 °C 21.9 °F /  -5.6 °C
Humidity: 89% 66% 80%
Wind Speed: 20.0mph /  32.2km/h - 5.7mph /  9.2km/h
Wind Gust: 25.0mph /  40.2km/h - -
Wind- - WSW
Pressure: 29.81 in /  1009.4 hPa 29.72 in /  1006.3 hPa -
Precipitation: 0.00 in /  0 mm    
Historical Graphs
 
 
Tabular Data for March 8, 2018
Time Temperature Dew Point Pressure Wind Wind Speed Wind Gust Humidity Rainfall Rate (Hourly)
00:04 30.7 °F /  -0.7 °C 26.7 °F /  -2.9 °C 29.81in /  1009.4hPa SW 8.0mph /  12.9km/h 19.0mph /  30.6km/h 85% 0.00in /  0mm
00:09 30.7 °F /  -0.7 °C 26.7 °F /  -2.9 °C 29.81in /  1009.4hPa WSW 8.0mph /  12.9km/h 19.0mph /  30.6km/h 85% 0.00in /  0mm
00:14 30.6 °F /  -0.8 °C 26.6 °F /  -3 °C 29.81in /  1009.4hPa WSW 7.0mph /  11.3km/h 14.0mph /  22.5km/h 85% 0.00in /  0mm
00:19 30.5 °F /  -0.8 °C 26.5 °F /  -3.1 °C 29.81in /  1009.4hPa SW 8.0mph /  12.9km/h 16.0mph /  25.7km/h 85% 0.00in /  0mm
00:24 30.4 °F /  -0.9 °C 26.4 °F /  -3.1 °C 29.81in /  1009.4hPa WSW 9.0mph /  14.5km/h 16.0mph /  25.7km/h 85% 0.00in /  0mm
00:29 30.3 °F /  -0.9 °C 26.0 °F /  -3.3 °C 29.81in /  1009.4hPa West 12.0mph /  19.3km/h 14.0mph /  22.5km/h 84% 0.00in /  0mm
00:34 30.3 °F /  -0.9 °C 25.8 °F /  -3.4 °C 29.81in /  1009.4hPa SSW 11.0mph /  17.7km/h 16.0mph /  25.7km/h 83% 0.00in /  0mm
00:39 30.4 °F /  -0.9 °C 25.9 °F /  -3.4 °C 29.81in /  1009.4hPa SW 11.0mph /  17.7km/h 15.0mph /  24.1km/h 83% 0.00in /  0mm
00:44 30.4 °F /  -0.9 °C 25.6 °F /  -3.6 °C 29.81in /  1009.4hPa West 9.0mph /  14.5km/h 18.0mph /  29km/h 82% 0.00in /  0mm
00:49 30.4 °F /  -0.9 °C 25.6 °F /  -3.6 °C 29.81in /  1009.4hPa SW 9.0mph /  14.5km/h 15.0mph /  24.1km/h 82% 0.00in /  0mm
00:54 30.3 °F /  -0.9 °C 25.5 °F /  -3.6 °C 29.81in /  1009.4hPa WSW 9.0mph /  14.5km/h 14.0mph /  22.5km/h 82% 0.00in /  0mm
00:59 30.3 °F /  -0.9 °C 25.5 °F /  -3.6 °C 29.81in /  1009.4hPa WSW 8.0mph /  12.9km/h 16.0mph /  25.7km/h 82% 0.00in /  0mm
01:04 30.2 °F /  -1 °C 25.4 °F /  -3.7 °C 29.81in /  1009.4hPa WSW 8.0mph /  12.9km/h 16.0mph /  25.7km/h 82% 0.00in /  0mm
01:09 30.1 °F /  -1.1 °C 25.6 °F /  -3.6 °C 29.81in /  1009.4hPa WSW 7.0mph /  11.3km/h 16.0mph /  25.7km/h 83% 0.00in /  0mm
01:14 30.1 °F /  -1.1 °C 25.8 °F /  -3.4 °C 29.81in /  1009.4hPa WSW 5.0mph /  8km/h 16.0mph /  25.7km/h 84% 0.00in /  0mm
01:19 30.1 °F /  -1.1 °C 25.8 °F /  -3.4 °C 29.81in /  1009.4hPa West 9.0mph /  14.5km/h 13.0mph /  20.9km/h 84% 0.00in /  0mm
01:24 29.8 °F /  -1.2 °C 25.8 °F /  -3.4 °C 29.81in /  1009.4hPa SW 7.0mph /  11.3km/h 14.0mph /  22.5km/h 85% 0.00in /  0mm
01:29 29.7 °F /  -1.3 °C 25.7 °F /  -3.5 °C 29.81in /  1009.4hPa West 9.0mph /  14.5km/h 12.0mph /  19.3km/h 85% 0.00in /  0mm
01:34 29.5 °F /  -1.4 °C 25.5 °F /  -3.6 °C 29.81in /  1009.4hPa WSW 7.0mph /  11.3km/h 16.0mph /  25.7km/h 85% 0.00in /  0mm
01:39 29.4 °F /  -1.4 °C 25.7 °F /  -3.5 °C 29.81in /  1009.4hPa WSW 7.0mph /  11.3km/h 16.0mph /  25.7km/h 86% 0.00in /  0mm
01:44 29.4 °F /  -1.4 °C 25.7 °F /  -3.5 °C 29.81in /  1009.4hPa WSW 6.0mph /  9.7km/h 12.0mph /  19.3km/h 86% 0.00in /  0mm
01:49 29.3 °F /  -1.5 °C 25.6 °F /  -3.6 °C 29.81in /  1009.4hPa SW 6.0mph /  9.7km/h 10.0mph /  16.1km/h 86% 0.00in /  0mm
01:54 29.2 °F /  -1.6 °C 25.5 °F /  -3.6 °C 29.81in /  1009.4hPa West 8.0mph /  12.9km/h 12.0mph /  19.3km/h 86% 0.00in /  0mm
01:59 28.8 °F /  -1.8 °C 24.9 °F /  -3.9 °C 29.81in /  1009.4hPa WSW 5.0mph /  8km/h 13.0mph /  20.9km/h 85% 0.00in /  0mm
02:04 28.7 °F /  -1.8 °C 24.8 °F /  -4 °C 29.81in /  1009.4hPa SW 6.0mph /  9.7km/h 10.0mph /  16.1km/h 85% 0.00in /  0mm
02:09 28.7 °F /  -1.8 °C 24.8 °F /  -4 °C 29.81in /  1009.4hPa WSW 6.0mph /  9.7km/h 12.0mph /  19.3km/h 85% 0.00in /  0mm
02:14 28.7 °F /  -1.8 °C 24.8 °F /  -4 °C 29.80in /  1009hPa WSW 6.0mph /  9.7km/h 12.0mph /  19.3km/h 85% 0.00in /  0mm
02:19 28.7 °F /  -1.8 °C 24.5 °F /  -4.2 °C 29.80in /  1009hPa WSW 6.0mph /  9.7km/h 13.0mph /  20.9km/h 84% 0.00in /  0mm
02:24 28.7 °F /  -1.8 °C 24.5 °F /  -4.2 °C 29.80in /  1009hPa WSW 6.0mph /  9.7km/h 13.0mph /  20.9km/h 84% 0.00in /  0mm
02:29 28.6 °F /  -1.9 °C 24.4 °F /  -4.2 °C 29.80in /  1009hPa SW 7.0mph /  11.3km/h 13.0mph /  20.9km/h 84% 0.00in /  0mm
02:34 28.5 °F /  -1.9 °C 24.3 °F /  -4.3 °C 29.80in /  1009hPa SSW 4.0mph /  6.4km/h 10.0mph /  16.1km/h 84% 0.00in /  0mm
02:39 28.5 °F /  -1.9 °C 24.3 °F /  -4.3 °C 29.79in /  1008.7hPa SW 5.0mph /  8km/h 16.0mph /  25.7km/h 84% 0.00in /  0mm
02:44 28.3 °F /  -2.1 °C 23.8 °F /  -4.6 °C 29.79in /  1008.7hPa WNW 5.0mph /  8km/h 11.0mph /  17.7km/h 83% 0.00in /  0mm
02:49 28.2 °F /  -2.1 °C 23.7 °F /  -4.6 °C 29.79in /  1008.7hPa SW 9.0mph /  14.5km/h 14.0mph /  22.5km/h 83% 0.00in /  0mm
02:54 28.3 °F /  -2.1 °C 23.5 °F /  -4.7 °C 29.79in /  1008.7hPa West 8.0mph /  12.9km/h 15.0mph /  24.1km/h 82% 0.00in /  0mm
02:59 28.2 °F /  -2.1 °C 23.4 °F /  -4.8 °C 29.79in /  1008.7hPa West 6.0mph /  9.7km/h 14.0mph /  22.5km/h 82% 0.00in /  0mm
03:04 28.2 °F /  -2.1 °C 23.4 °F /  -4.8 °C 29.79in /  1008.7hPa West 15.0mph /  24.1km/h 15.0mph /  24.1km/h 82% 0.00in /  0mm
03:09 28.2 °F /  -2.1 °C 23.4 °F /  -4.8 °C 29.79in /  1008.7hPa WSW 12.0mph /  19.3km/h 15.0mph /  24.1km/h 82% 0.00in /  0mm
03:14 28.1 °F /  -2.2 °C 23.3 °F /  -4.8 °C 29.79in /  1008.7hPa WSW 9.0mph /  14.5km/h 20.0mph /  32.2km/h 82% 0.00in /  0mm
03:19 28.1 °F /  -2.2 °C 23.0 °F /  -5 °C 29.79in /  1008.7hPa WSW 9.0mph /  14.5km/h 20.0mph /  32.2km/h 81% 0.00in /  0mm
03:24 28.1 °F /  -2.2 °C 23.0 °F /  -5 °C 29.79in /  1008.7hPa WSW 9.0mph /  14.5km/h 17.0mph /  27.4km/h 81% 0.00in /  0mm
03:29 28.1 °F /  -2.2 °C 23.0 °F /  -5 °C 29.79in /  1008.7hPa WSW 8.0mph /  12.9km/h 17.0mph /  27.4km/h 81% 0.00in /  0mm
03:34 27.9 °F /  -2.3 °C 22.8 °F /  -5.1 °C 29.79in /  1008.7hPa WSW 9.0mph /  14.5km/h 19.0mph /  30.6km/h 81% 0.00in /  0mm
03:39 27.7 °F /  -2.4 °C 22.3 °F /  -5.4 °C 29.79in /  1008.7hPa West 7.0mph /  11.3km/h 17.0mph /  27.4km/h 80% 0.00in /  0mm
03:44 27.4 °F /  -2.6 °C 22.0 °F /  -5.6 °C 29.79in /  1008.7hPa SW 10.0mph /  16.1km/h 17.0mph /  27.4km/h 80% 0.00in /  0mm
03:49 27.3 °F /  -2.6 °C 21.9 °F /  -5.6 °C 29.79in /  1008.7hPa WSW 8.0mph /  12.9km/h 17.0mph /  27.4km/h 80% 0.00in /  0mm
03:54 27.1 °F /  -2.7 °C 21.7 °F /  -5.7 °C 29.80in /  1009hPa WSW 8.0mph /  12.9km/h 17.0mph /  27.4km/h 80% 0.00in /  0mm
03:59 26.9 °F /  -2.8 °C 21.3 °F /  -5.9 °C 29.80in /  1009hPa WSW 8.0mph /  12.9km/h 17.0mph /  27.4km/h 79% 0.00in /  0mm
04:04 26.6 °F /  -3 °C 21.0 °F /  -6.1 °C 29.80in /  1009hPa West 7.0mph /  11.3km/h 12.0mph /  19.3km/h 79% 0.00in /  0mm
04:09 26.5 °F /  -3.1 °C 20.6 °F /  -6.3 °C 29.80in /  1009hPa WSW 5.0mph /  8km/h 13.0mph /  20.9km/h 78% 0.00in /  0mm
04:14 26.2 °F /  -3.2 °C 20.3 °F /  -6.5 °C 29.80in /  1009hPa SW 9.0mph /  14.5km/h 11.0mph /  17.7km/h 78% 0.00in /  0mm
04:19 26.0 °F /  -3.3 °C 19.8 °F /  -6.8 °C 29.79in /  1008.7hPa WSW 3.0mph /  4.8km/h 12.0mph /  19.3km/h 77% 0.00in /  0mm
04:24 25.9 °F /  -3.4 °C 19.7 °F /  -6.8 °C 29.79in /  1008.7hPa West 7.0mph /  11.3km/h 12.0mph /  19.3km/h 77% 0.00in /  0mm
04:29 25.9 °F /  -3.4 °C 19.7 °F /  -6.8 °C 29.80in /  1009hPa West 6.0mph /  9.7km/h 12.0mph /  19.3km/h 77% 0.00in /  0mm
04:34 25.9 °F /  -3.4 °C 20.0 °F /  -6.7 °C 29.79in /  1008.7hPa West 5.0mph /  8km/h 11.0mph /  17.7km/h 78% 0.00in /  0mm
04:39 26.0 °F /  -3.3 °C 20.1 °F /  -6.6 °C 29.79in /  1008.7hPa WSW 6.0mph /  9.7km/h 12.0mph /  19.3km/h 78% 0.00in /  0mm
04:44 26.0 °F /  -3.3 °C 20.1 °F /  -6.6 °C 29.79in /  1008.7hPa WSW 5.0mph /  8km/h 12.0mph /  19.3km/h 78% 0.00in /  0mm
04:49 26.0 °F /  -3.3 °C 20.4 °F /  -6.4 °C 29.80in /  1009hPa WSW 4.0mph /  6.4km/h 8.0mph /  12.9km/h 79% 0.00in /  0mm
04:54 26.0 °F /  -3.3 °C 20.4 °F /  -6.4 °C 29.80in /  1009hPa West 4.0mph /  6.4km/h 7.0mph /  11.3km/h 79% 0.00in /  0mm
04:59 26.0 °F /  -3.3 °C 20.4 °F /  -6.4 °C 29.80in /  1009hPa West 3.0mph /  4.8km/h 7.0mph /  11.3km/h 79% 0.00in /  0mm
05:04 26.0 °F /  -3.3 °C 20.4 °F /  -6.4 °C 29.79in /  1008.7hPa WSW 4.0mph /  6.4km/h 9.0mph /  14.5km/h 79% 0.00in /  0mm
05:09 26.0 °F /  -3.3 °C 20.4 °F /  -6.4 °C 29.80in /  1009hPa WSW 3.0mph /  4.8km/h 9.0mph /  14.5km/h 79% 0.00in /  0mm
05:14 26.0 °F /  -3.3 °C 20.4 °F /  -6.4 °C 29.79in /  1008.7hPa West 2.0mph /  3.2km/h 7.0mph /  11.3km/h 79% 0.00in /  0mm
05:19 26.0 °F /  -3.3 °C 20.4 °F /  -6.4 °C 29.79in /  1008.7hPa Calm   6.0mph /  9.7km/h 79% 0.00in /  0mm
05:24 26.1 °F /  -3.3 °C 20.8 °F /  -6.2 °C 29.79in /  1008.7hPa SW 3.0mph /  4.8km/h 7.0mph /  11.3km/h 80% 0.00in /  0mm
05:29 26.2 °F /  -3.2 °C 20.9 °F /  -6.2 °C 29.80in /  1009hPa WSW 3.0mph /  4.8km/h 6.0mph /  9.7km/h 80% 0.00in /  0mm
05:34 26.3 °F /  -3.2 °C 21.0 °F /  -6.1 °C 29.79in /  1008.7hPa WSW 3.0mph /  4.8km/h 9.0mph /  14.5km/h 80% 0.00in /  0mm
05:39 26.3 °F /  -3.2 °C 21.0 °F /  -6.1 °C 29.80in /  1009hPa SW 4.0mph /  6.4km/h 9.0mph /  14.5km/h 80% 0.00in /  0mm
05:44 26.3 °F /  -3.2 °C 21.3 °F /  -5.9 °C 29.80in /  1009hPa SW 5.0mph /  8km/h 11.0mph /  17.7km/h 81% 0.00in /  0mm
05:49 26.3 °F /  -3.2 °C 21.3 °F /  -5.9 °C 29.80in /  1009hPa SW 5.0mph /  8km/h 11.0mph /  17.7km/h 81% 0.00in /  0mm
05:54 26.2 °F /  -3.2 °C 21.2 °F /  -6 °C 29.80in /  1009hPa SW 4.0mph /  6.4km/h 8.0mph /  12.9km/h 81% 0.00in /  0mm
05:59 26.1 °F /  -3.3 °C 21.1 °F /  -6.1 °C 29.80in /  1009hPa SW 4.0mph /  6.4km/h 8.0mph /  12.9km/h 81% 0.00in /  0mm
06:04 25.9 °F /  -3.4 °C 21.2 °F /  -6 °C 29.80in /  1009hPa SW 4.0mph /  6.4km/h 8.0mph /  12.9km/h 82% 0.00in /  0mm
06:09 25.8 °F /  -3.4 °C 21.1 °F /  -6.1 °C 29.80in /  1009hPa SW 4.0mph /  6.4km/h 13.0mph /  20.9km/h 82% 0.00in /  0mm
06:14 25.7 °F /  -3.5 °C 21.0 °F /  -6.1 °C 29.79in /  1008.7hPa SW 2.0mph /  3.2km/h 10.0mph /  16.1km/h 82% 0.00in /  0mm
06:19 25.5 °F /  -3.6 °C 20.8 °F /  -6.2 °C 29.80in /  1009hPa SW 3.0mph /  4.8km/h 9.0mph /  14.5km/h 82% 0.00in /  0mm
06:24 25.4 °F /  -3.7 °C 20.4 °F /  -6.4 °C 29.80in /  1009hPa WSW 4.0mph /  6.4km/h 10.0mph /  16.1km/h 81% 0.00in /  0mm
06:29 25.3 °F /  -3.7 °C 20.3 °F /  -6.5 °C 29.80in /  1009hPa WSW 6.0mph /  9.7km/h 11.0mph /  17.7km/h 81% 0.00in /  0mm
06:34 25.2 °F /  -3.8 °C 20.2 °F /  -6.6 °C 29.80in /  1009hPa SW 8.0mph /  12.9km/h 14.0mph /  22.5km/h 81% 0.00in /  0mm
06:39 25.1 °F /  -3.8 °C 19.8 °F /  -6.8 °C 29.80in /  1009hPa SW 4.0mph /  6.4km/h 12.0mph /  19.3km/h 80% 0.00in /  0mm
06:44 25.0 °F /  -3.9 °C 19.4 °F /  -7 °C 29.80in /  1009hPa WSW 6.0mph /  9.7km/h 12.0mph /  19.3km/h 79% 0.00in /  0mm
06:49 25.0 °F /  -3.9 °C 19.1 °F /  -7.2 °C 29.80in /  1009hPa WSW 5.0mph /  8km/h 9.0mph /  14.5km/h 78% 0.00in /  0mm
06:54 25.1 °F /  -3.8 °C 19.2 °F /  -7.1 °C 29.80in /  1009hPa WSW 5.0mph /  8km/h 9.0mph /  14.5km/h 78% 0.00in /  0mm
06:59 25.1 °F /  -3.8 °C 19.2 °F /  -7.1 °C 29.80in /  1009hPa WSW 5.0mph /  8km/h 13.0mph /  20.9km/h 78% 0.00in /  0mm
07:04 25.1 °F /  -3.8 °C 19.2 °F /  -7.1 °C 29.80in /  1009hPa WSW 4.0mph /  6.4km/h 13.0mph /  20.9km/h 78% 0.00in /  0mm
07:09 25.2 °F /  -3.8 °C 19.3 °F /  -7.1 °C 29.80in /  1009hPa WSW 2.0mph /  3.2km/h 8.0mph /  12.9km/h 78% 0.00in /  0mm
07:14 25.3 °F /  -3.7 °C 19.4 °F /  -7 °C 29.80in /  1009hPa WSW 4.0mph /  6.4km/h 8.0mph /  12.9km/h 78% 0.00in /  0mm
07:19 25.5 °F /  -3.6 °C 19.6 °F /  -6.9 °C 29.80in /  1009hPa WSW 4.0mph /  6.4km/h 9.0mph /  14.5km/h 78% 0.00in /  0mm
07:24 25.6 °F /  -3.6 °C 19.7 °F /  -6.8 °C 29.80in /  1009hPa WSW 4.0mph /  6.4km/h 9.0mph /  14.5km/h 78% 0.00in /  0mm
07:29 25.6 °F /  -3.6 °C 19.7 °F /  -6.8 °C 29.80in /  1009hPa WSW 3.0mph /  4.8km/h 9.0mph /  14.5km/h 78% 0.00in /  0mm
07:34 25.6 °F /  -3.6 °C 19.7 °F /  -6.8 °C 29.80in /  1009hPa WSW 1.0mph /  1.6km/h 8.0mph /  12.9km/h 78% 0.00in /  0mm
07:39 25.9 °F /  -3.4 °C 20.0 °F /  -6.7 °C 29.80in /  1009hPa WSW 5.0mph /  8km/h 7.0mph /  11.3km/h 78% 0.00in /  0mm
07:44 26.1 °F /  -3.3 °C 20.2 °F /  -6.6 °C 29.80in /  1009hPa WSW 5.0mph /  8km/h 7.0mph /  11.3km/h 78% 0.00in /  0mm
07:49 26.3 °F /  -3.2 °C 20.4 °F /  -6.4 °C 29.81in /  1009.4hPa WSW 2.0mph /  3.2km/h 7.0mph /  11.3km/h 78% 0.00in /  0mm
07:54 26.4 °F /  -3.1 °C 20.2 °F /  -6.6 °C 29.80in /  1009hPa WSW 4.0mph /  6.4km/h 8.0mph /  12.9km/h 77% 0.00in /  0mm
07:59 26.6 °F /  -3 °C 20.4 °F /  -6.4 °C 29.80in /  1009hPa WSW 4.0mph /  6.4km/h 8.0mph /  12.9km/h 77% 0.00in /  0mm
08:04 26.7 °F /  -2.9 °C 20.1 °F /  -6.6 °C 29.80in /  1009hPa WSW 4.0mph /  6.4km/h 16.0mph /  25.7km/h 76% 0.00in /  0mm
08:09 26.6 °F /  -3 °C 20.1 °F /  -6.6 °C 29.80in /  1009hPa SW 7.0mph /  11.3km/h 16.0mph /  25.7km/h 76% 0.00in /  0mm
08:14 26.5 °F /  -3.1 °C 19.6 °F /  -6.9 °C 29.80in /  1009hPa WSW 10.0mph /  16.1km/h 14.0mph /  22.5km/h 75% 0.00in /  0mm
08:19 27.0 °F /  -2.8 °C 20.4 °F /  -6.4 °C 29.80in /  1009hPa WSW 3.0mph /  4.8km/h 12.0mph /  19.3km/h 76% 0.00in /  0mm
08:24 27.4 °F /  -2.6 °C 20.5 °F /  -6.4 °C 29.80in /  1009hPa WSW 4.0mph /  6.4km/h 11.0mph /  17.7km/h 75% 0.00in /  0mm
08:29 27.6 °F /  -2.4 °C 21.0 °F /  -6.1 °C 29.80in /  1009hPa WSW 6.0mph /  9.7km/h 13.0mph /  20.9km/h 76% 0.00in /  0mm
08:34 27.8 °F /  -2.3 °C 21.2 °F /  -6 °C 29.80in /  1009hPa WSW 5.0mph /  8km/h 13.0mph /  20.9km/h 76% 0.00in /  0mm
08:39 28.1 °F /  -2.2 °C 21.5 °F /  -5.8 °C 29.80in /  1009hPa SSW 5.0mph /  8km/h 12.0mph /  19.3km/h 76% 0.00in /  0mm
08:44 28.1 °F /  -2.2 °C 21.2 °F /  -6 °C 29.80in /  1009hPa NW 4.0mph /  6.4km/h 12.0mph /  19.3km/h 75% 0.00in /  0mm
08:49 27.9 °F /  -2.3 °C 20.7 °F /  -6.3 °C 29.80in /  1009hPa West 9.0mph /  14.5km/h 13.0mph /  20.9km/h 74% 0.00in /  0mm
08:54 28.0 °F /  -2.2 °C 20.8 °F /  -6.2 °C 29.80in /  1009hPa WSW 8.0mph /  12.9km/h 13.0mph /  20.9km/h 74% 0.00in /  0mm
08:59 27.8 °F /  -2.3 °C 20.6 °F /  -6.3 °C 29.80in /  1009hPa SW 6.0mph /  9.7km/h 15.0mph /  24.1km/h 74% 0.00in /  0mm
09:04 28.0 °F /  -2.2 °C 20.8 °F /  -6.2 °C 29.80in /  1009hPa WSW 7.0mph /  11.3km/h 15.0mph /  24.1km/h 74% 0.00in /  0mm
09:09 28.1 °F /  -2.2 °C 21.2 °F /  -6 °C 29.80in /  1009hPa SW 6.0mph /  9.7km/h 12.0mph /  19.3km/h 75% 0.00in /  0mm
09:14 28.1 °F /  -2.2 °C 20.9 °F /  -6.2 °C 29.80in /  1009hPa SW 6.0mph /  9.7km/h 12.0mph /  19.3km/h 74% 0.00in /  0mm
09:19 27.9 °F /  -2.3 °C 20.7 °F /  -6.3 °C 29.80in /  1009hPa WSW 7.0mph /  11.3km/h 13.0mph /  20.9km/h 74% 0.00in /  0mm
09:24 28.0 °F /  -2.2 °C 21.1 °F /  -6.1 °C 29.80in /  1009hPa WSW 6.0mph /  9.7km/h 13.0mph /  20.9km/h 75% 0.00in /  0mm
09:29 28.2 °F /  -2.1 °C 21.0 °F /  -6.1 °C 29.80in /  1009hPa WSW 6.0mph /  9.7km/h 12.0mph /  19.3km/h 74% 0.00in /  0mm
09:34 28.3 °F /  -2.1 °C 21.1 °F /  -6.1 °C 29.80in /  1009hPa WSW 11.0mph /  17.7km/h 12.0mph /  19.3km/h 74% 0.00in /  0mm
09:39 28.3 °F /  -2.1 °C 21.1 °F /  -6.1 °C 29.80in /  1009hPa WSW 6.0mph /  9.7km/h 13.0mph /  20.9km/h 74% 0.00in /  0mm
09:44 28.2 °F /  -2.1 °C 21.0 °F /  -6.1 °C 29.80in /  1009hPa SW 7.0mph /  11.3km/h 13.0mph /  20.9km/h 74% 0.00in /  0mm
09:49 28.5 °F /  -1.9 °C 21.3 °F /  -5.9 °C 29.80in /  1009hPa SSW 6.0mph /  9.7km/h 16.0mph /  25.7km/h 74% 0.00in /  0mm
09:54 28.7 °F /  -1.8 °C 21.5 °F /  -5.8 °C 29.80in /  1009hPa WSW 5.0mph /  8km/h 13.0mph /  20.9km/h 74% 0.00in /  0mm
09:59 28.6 °F /  -1.9 °C 20.7 °F /  -6.3 °C 29.80in /  1009hPa WSW 8.0mph /  12.9km/h 18.0mph /  29km/h 72% 0.00in /  0mm
10:04 28.5 °F /  -1.9 °C 20.3 °F /  -6.5 °C 29.80in /  1009hPa SW 11.0mph /  17.7km/h 16.0mph /  25.7km/h 71% 0.00in /  0mm
10:09 28.7 °F /  -1.8 °C 20.1 °F /  -6.6 °C 29.80in /  1009hPa West 6.0mph /  9.7km/h 13.0mph /  20.9km/h 70% 0.00in /  0mm
10:14 29.0 °F /  -1.7 °C 20.4 °F /  -6.4 °C 29.80in /  1009hPa WSW 8.0mph /  12.9km/h 15.0mph /  24.1km/h 70% 0.00in /  0mm
10:19 28.7 °F /  -1.8 °C 19.8 °F /  -6.8 °C 29.80in /  1009hPa SW 9.0mph /  14.5km/h 22.0mph /  35.4km/h 69% 0.00in /  0mm
10:24 29.0 °F /  -1.7 °C 20.1 °F /  -6.6 °C 29.80in /  1009hPa SW 10.0mph /  16.1km/h 22.0mph /  35.4km/h 69% 0.00in /  0mm
10:29 29.2 °F /  -1.6 °C 20.3 °F /  -6.5 °C 29.80in /  1009hPa SW 8.0mph /  12.9km/h 15.0mph /  24.1km/h 69% 0.00in /  0mm
10:34 28.7 °F /  -1.8 °C 19.5 °F /  -6.9 °C 29.80in /  1009hPa WSW 9.0mph /  14.5km/h 17.0mph /  27.4km/h 68% 0.00in /  0mm
10:39 28.4 °F /  -2 °C 18.8 °F /  -7.3 °C 29.80in /  1009hPa WSW 10.0mph /  16.1km/h 18.0mph /  29km/h 67% 0.00in /  0mm
10:44 28.5 °F /  -1.9 °C 19.3 °F /  -7.1 °C 29.79in /  1008.7hPa WSW 9.0mph /  14.5km/h 18.0mph /  29km/h 68% 0.00in /  0mm
10:49 28.9 °F /  -1.7 °C 19.7 °F /  -6.8 °C 29.79in /  1008.7hPa SW 7.0mph /  11.3km/h 20.0mph /  32.2km/h 68% 0.00in /  0mm
10:54 28.9 °F /  -1.7 °C 19.3 °F /  -7.1 °C 29.79in /  1008.7hPa SW 9.0mph /  14.5km/h 24.0mph /  38.6km/h 67% 0.00in /  0mm
10:59 29.0 °F /  -1.7 °C 19.1 °F /  -7.2 °C 29.79in /  1008.7hPa SW 15.0mph /  24.1km/h 22.0mph /  35.4km/h 66% 0.00in /  0mm
11:04 29.5 °F /  -1.4 °C 19.9 °F /  -6.7 °C 29.80in /  1009hPa WNW 5.0mph /  8km/h 21.0mph /  33.8km/h 67% 0.00in /  0mm
11:09 29.7 °F /  -1.3 °C 20.4 °F /  -6.4 °C 29.79in /  1008.7hPa WSW 7.0mph /  11.3km/h 16.0mph /  25.7km/h 68% 0.00in /  0mm
11:14 29.3 °F /  -1.5 °C 20.0 °F /  -6.7 °C 29.79in /  1008.7hPa WSW 10.0mph /  16.1km/h 18.0mph /  29km/h 68% 0.00in /  0mm
11:19 29.7 °F /  -1.3 °C 21.1 °F /  -6.1 °C 29.80in /  1009hPa WSW 9.0mph /  14.5km/h 18.0mph /  29km/h 70% 0.00in /  0mm
11:24 30.7 °F /  -0.7 °C 21.4 °F /  -5.9 °C 29.80in /  1009hPa WSW 8.0mph /  12.9km/h 21.0mph /  33.8km/h 68% 0.00in /  0mm
11:29 29.7 °F /  -1.3 °C 20.4 °F /  -6.4 °C 29.80in /  1009hPa WSW 10.0mph /  16.1km/h 21.0mph /  33.8km/h 68% 0.00in /  0mm
11:34 29.5 °F /  -1.4 °C 20.6 °F /  -6.3 °C 29.80in /  1009hPa WSW 11.0mph /  17.7km/h 21.0mph /  33.8km/h 69% 0.00in /  0mm
11:39 29.2 °F /  -1.6 °C 20.3 °F /  -6.5 °C 29.79in /  1008.7hPa SW 11.0mph /  17.7km/h 21.0mph /  33.8km/h 69% 0.00in /  0mm
11:44 28.9 °F /  -1.7 °C 20.0 °F /  -6.7 °C 29.79in /  1008.7hPa SW 8.0mph /  12.9km/h 21.0mph /  33.8km/h 69% 0.00in /  0mm
11:49 28.9 °F /  -1.7 °C 20.7 °F /  -6.3 °C 29.79in /  1008.7hPa SW 4.0mph /  6.4km/h 17.0mph /  27.4km/h 71% 0.00in /  0mm
11:54 28.9 °F /  -1.7 °C 21.0 °F /  -6.1 °C 29.79in /  1008.7hPa SW 6.0mph /  9.7km/h 17.0mph /  27.4km/h 72% 0.00in /  0mm
11:59 28.9 °F /  -1.7 °C 21.3 °F /  -5.9 °C 29.79in /  1008.7hPa SW 8.0mph /  12.9km/h 17.0mph /  27.4km/h 73% 0.00in /  0mm
12:04 28.5 °F /  -1.9 °C 21.3 °F /  -5.9 °C 29.79in /  1008.7hPa West 7.0mph /  11.3km/h 19.0mph /  30.6km/h 74% 0.00in /  0mm
12:09 28.7 °F /  -1.8 °C 21.5 °F /  -5.8 °C 29.79in /  1008.7hPa WSW 20.0mph /  32.2km/h 22.0mph /  35.4km/h 74% 0.00in /  0mm
12:14 29.0 °F /  -1.7 °C 21.1 °F /  -6.1 °C 29.79in /  1008.7hPa West 6.0mph /  9.7km/h 20.0mph /  32.2km/h 72% 0.00in /  0mm
12:19 29.2 °F /  -1.6 °C 21.3 °F /  -5.9 °C 29.79in /  1008.7hPa SW 9.0mph /  14.5km/h 16.0mph /  25.7km/h 72% 0.00in /  0mm
12:24 29.7 °F /  -1.3 °C 21.8 °F /  -5.7 °C 29.79in /  1008.7hPa SW 5.0mph /  8km/h 15.0mph /  24.1km/h 72% 0.00in /  0mm
12:29 29.9 °F /  -1.2 °C 20.6 °F /  -6.3 °C 29.79in /  1008.7hPa WSW 9.0mph /  14.5km/h 18.0mph /  29km/h 68% 0.00in /  0mm
12:34 29.9 °F /  -1.2 °C 20.3 °F /  -6.5 °C 29.79in /  1008.7hPa WSW 9.0mph /  14.5km/h 19.0mph /  30.6km/h 67% 0.00in /  0mm
12:39 29.6 °F /  -1.3 °C 19.6 °F /  -6.9 °C 29.78in /  1008.4hPa WSW 10.0mph /  16.1km/h 19.0mph /  30.6km/h 66% 0.00in /  0mm
12:44 29.8 °F /  -1.2 °C 20.2 °F /  -6.6 °C 29.78in /  1008.4hPa WSW 9.0mph /  14.5km/h 18.0mph /  29km/h 67% 0.00in /  0mm
12:49 29.9 °F /  -1.2 °C 20.3 °F /  -6.5 °C 29.78in /  1008.4hPa WSW 9.0mph /  14.5km/h 17.0mph /  27.4km/h 67% 0.00in /  0mm
12:54 29.4 °F /  -1.4 °C 19.8 °F /  -6.8 °C 29.78in /  1008.4hPa SW 5.0mph /  8km/h 15.0mph /  24.1km/h 67% 0.00in /  0mm
12:59 29.7 °F /  -1.3 °C 20.4 °F /  -6.4 °C 29.78in /  1008.4hPa WSW 9.0mph /  14.5km/h 15.0mph /  24.1km/h 68% 0.00in /  0mm
13:04 29.4 °F /  -1.4 °C 20.1 °F /  -6.6 °C 29.78in /  1008.4hPa WSW 8.0mph /  12.9km/h 16.0mph /  25.7km/h 68% 0.00in /  0mm
13:09 29.3 °F /  -1.5 °C 19.7 °F /  -6.8 °C 29.78in /  1008.4hPa WSW 9.0mph /  14.5km/h 16.0mph /  25.7km/h 67% 0.00in /  0mm
13:14 29.2 °F /  -1.6 °C 19.6 °F /  -6.9 °C 29.78in /  1008.4hPa SSW 20.0mph /  32.2km/h 25.0mph /  40.2km/h 67% 0.00in /  0mm
13:19 29.0 °F /  -1.7 °C 19.8 °F /  -6.8 °C 29.78in /  1008.4hPa WSW 10.0mph /  16.1km/h 20.0mph /  32.2km/h 68% 0.00in /  0mm
13:24 28.8 °F /  -1.8 °C 19.9 °F /  -6.7 °C 29.77in /  1008hPa WSW 11.0mph /  17.7km/h 19.0mph /  30.6km/h 69% 0.00in /  0mm
13:29 28.7 °F /  -1.8 °C 19.8 °F /  -6.8 °C 29.77in /  1008hPa South 10.0mph /  16.1km/h 19.0mph /  30.6km/h 69% 0.00in /  0mm
13:34 28.4 °F /  -2 °C 19.9 °F /  -6.7 °C 29.78in /  1008.4hPa SW 13.0mph /  20.9km/h 19.0mph /  30.6km/h 70% 0.00in /  0mm
13:39 28.5 °F /  -1.9 °C 20.6 °F /  -6.3 °C 29.77in /  1008hPa WSW 10.0mph /  16.1km/h 19.0mph /  30.6km/h 72% 0.00in /  0mm
13:44 28.7 °F /  -1.8 °C 21.1 °F /  -6.1 °C 29.78in /  1008.4hPa WSW 9.0mph /  14.5km/h 19.0mph /  30.6km/h 73% 0.00in /  0mm
13:49 28.7 °F /  -1.8 °C 21.5 °F /  -5.8 °C 29.77in /  1008hPa WSW 9.0mph /  14.5km/h 19.0mph /  30.6km/h 74% 0.00in /  0mm
13:54 28.9 °F /  -1.7 °C 21.7 °F /  -5.7 °C 29.77in /  1008hPa WSW 8.0mph /  12.9km/h 16.0mph /  25.7km/h 74% 0.00in /  0mm
13:59 28.9 °F /  -1.7 °C 21.7 °F /  -5.7 °C 29.77in /  1008hPa WSW 8.0mph /  12.9km/h 16.0mph /  25.7km/h 74% 0.00in /  0mm
14:04 28.7 °F /  -1.8 °C 21.8 °F /  -5.7 °C 29.77in /  1008hPa SW 8.0mph /  12.9km/h 16.0mph /  25.7km/h 75% 0.00in /  0mm
14:09 28.7 °F /  -1.8 °C 22.1 °F /  -5.5 °C 29.76in /  1007.7hPa WSW 9.0mph /  14.5km/h 16.0mph /  25.7km/h 76% 0.00in /  0mm
14:14 28.9 °F /  -1.7 °C 22.0 °F /  -5.6 °C 29.76in /  1007.7hPa WSW 10.0mph /  16.1km/h 18.0mph /  29km/h 75% 0.00in /  0mm
14:19 29.2 °F /  -1.6 °C 21.9 °F /  -5.6 °C 29.76in /  1007.7hPa WSW 10.0mph /  16.1km/h 18.0mph /  29km/h 74% 0.00in /  0mm
14:24 29.2 °F /  -1.6 °C 21.9 °F /  -5.6 °C 29.76in /  1007.7hPa WSW 9.0mph /  14.5km/h 16.0mph /  25.7km/h 74% 0.00in /  0mm
14:29 28.8 °F /  -1.8 °C 21.6 °F /  -5.8 °C 29.76in /  1007.7hPa SW 9.0mph /  14.5km/h 20.0mph /  32.2km/h 74% 0.00in /  0mm
14:34 28.5 °F /  -1.9 °C 21.6 °F /  -5.8 °C 29.77in /  1008hPa SW 10.0mph /  16.1km/h 20.0mph /  32.2km/h 75% 0.00in /  0mm
14:39 28.5 °F /  -1.9 °C 21.9 °F /  -5.6 °C 29.77in /  1008hPa SW 12.0mph /  19.3km/h 16.0mph /  25.7km/h 76% 0.00in /  0mm
14:44 28.3 °F /  -2.1 °C 22.0 °F /  -5.6 °C 29.77in /  1008hPa WSW 5.0mph /  8km/h 20.0mph /  32.2km/h 77% 0.00in /  0mm
14:49 28.1 °F /  -2.2 °C 22.1 °F /  -5.5 °C 29.76in /  1007.7hPa SW 8.0mph /  12.9km/h 20.0mph /  32.2km/h 78% 0.00in /  0mm
14:54 28.0 °F /  -2.2 °C 22.3 °F /  -5.4 °C 29.76in /  1007.7hPa SW 9.0mph /  14.5km/h 18.0mph /  29km/h 79% 0.00in /  0mm
14:59 28.3 °F /  -2.1 °C 22.9 °F /  -5.1 °C 29.76in /  1007.7hPa SW 9.0mph /  14.5km/h 16.0mph /  25.7km/h 80% 0.00in /  0mm
15:04 28.5 °F /  -1.9 °C 23.1 °F /  -4.9 °C 29.76in /  1007.7hPa SW 6.0mph /  9.7km/h 19.0mph /  30.6km/h 80% 0.00in /  0mm
15:09 28.5 °F /  -1.9 °C 23.1 °F /  -4.9 °C 29.76in /  1007.7hPa SW 6.0mph /  9.7km/h 17.0mph /  27.4km/h 80% 0.00in /  0mm
15:14 28.3 °F /  -2.1 °C 22.9 °F /  -5.1 °C 29.76in /  1007.7hPa West 7.0mph /  11.3km/h 18.0mph /  29km/h 80% 0.00in /  0mm
15:19 28.3 °F /  -2.1 °C 22.9 °F /  -5.1 °C 29.75in /  1007.3hPa SW 9.0mph /  14.5km/h 17.0mph /  27.4km/h 80% 0.00in /  0mm
15:24 28.4 °F /  -2 °C 23.0 °F /  -5 °C 29.76in /  1007.7hPa WSW 9.0mph /  14.5km/h 17.0mph /  27.4km/h 80% 0.00in /  0mm
15:29 28.3 °F /  -2.1 °C 23.2 °F /  -4.9 °C 29.76in /  1007.7hPa SW 7.0mph /  11.3km/h 16.0mph /  25.7km/h 81% 0.00in /  0mm
15:34 28.2 °F /  -2.1 °C 23.1 °F /  -4.9 °C 29.76in /  1007.7hPa SW 9.0mph /  14.5km/h 18.0mph /  29km/h 81% 0.00in /  0mm
15:39 28.1 °F /  -2.2 °C 23.0 °F /  -5 °C 29.76in /  1007.7hPa SW 8.0mph /  12.9km/h 16.0mph /  25.7km/h 81% 0.00in /  0mm
15:44 28.3 °F /  -2.1 °C 23.5 °F /  -4.7 °C 29.76in /  1007.7hPa WSW 5.0mph /  8km/h 15.0mph /  24.1km/h 82% 0.00in /  0mm
15:49 28.6 °F /  -1.9 °C 23.8 °F /  -4.6 °C 29.76in /  1007.7hPa WSW 8.0mph /  12.9km/h 14.0mph /  22.5km/h 82% 0.00in /  0mm
15:54 28.3 °F /  -2.1 °C 23.2 °F /  -4.9 °C 29.76in /  1007.7hPa West 6.0mph /  9.7km/h 16.0mph /  25.7km/h 81% 0.00in /  0mm
15:59 28.5 °F /  -1.9 °C 23.4 °F /  -4.8 °C 29.76in /  1007.7hPa WSW 8.0mph /  12.9km/h 17.0mph /  27.4km/h 81% 0.00in /  0mm
16:04 28.2 °F /  -2.1 °C 23.1 °F /  -4.9 °C 29.76in /  1007.7hPa WSW 8.0mph /  12.9km/h 17.0mph /  27.4km/h 81% 0.00in /  0mm
16:09 28.3 °F /  -2.1 °C 23.2 °F /  -4.9 °C 29.76in /  1007.7hPa WSW 8.0mph /  12.9km/h 16.0mph /  25.7km/h 81% 0.00in /  0mm
16:14 28.7 °F /  -1.8 °C 23.9 °F /  -4.5 °C 29.76in /  1007.7hPa SW 9.0mph /  14.5km/h 10.0mph /  16.1km/h 82% 0.00in /  0mm
16:19 28.5 °F /  -1.9 °C 23.7 °F /  -4.6 °C 29.76in /  1007.7hPa WSW 11.0mph /  17.7km/h 13.0mph /  20.9km/h 82% 0.00in /  0mm
16:24 28.3 °F /  -2.1 °C 23.2 °F /  -4.9 °C 29.76in /  1007.7hPa SW 4.0mph /  6.4km/h 14.0mph /  22.5km/h 81% 0.00in /  0mm
16:29 28.2 °F /  -2.1 °C 23.4 °F /  -4.8 °C 29.76in /  1007.7hPa WSW 7.0mph /  11.3km/h 13.0mph /  20.9km/h 82% 0.00in /  0mm
16:34 28.2 °F /  -2.1 °C 23.4 °F /  -4.8 °C 29.76in /  1007.7hPa WSW 6.0mph /  9.7km/h 13.0mph /  20.9km/h 82% 0.00in /  0mm
16:39 28.1 °F /  -2.2 °C 23.6 °F /  -4.7 °C 29.76in /  1007.7hPa SW 6.0mph /  9.7km/h 13.0mph /  20.9km/h 83% 0.00in /  0mm
16:44 27.9 °F /  -2.3 °C 23.4 °F /  -4.8 °C 29.76in /  1007.7hPa SW 2.0mph /  3.2km/h 12.0mph /  19.3km/h 83% 0.00in /  0mm
16:49 27.8 °F /  -2.3 °C 23.6 °F /  -4.7 °C 29.77in /  1008hPa WSW 6.0mph /  9.7km/h 11.0mph /  17.7km/h 84% 0.00in /  0mm
16:54 27.8 °F /  -2.3 °C 23.6 °F /  -4.7 °C 29.77in /  1008hPa SW 7.0mph /  11.3km/h 13.0mph /  20.9km/h 84% 0.00in /  0mm
16:59 27.9 °F /  -2.3 °C 23.7 °F /  -4.6 °C 29.76in /  1007.7hPa SW 7.0mph /  11.3km/h 9.0mph /  14.5km/h 84% 0.00in /  0mm
17:04 27.9 °F /  -2.3 °C 23.7 °F /  -4.6 °C 29.76in /  1007.7hPa WSW 4.0mph /  6.4km/h 15.0mph /  24.1km/h 84% 0.00in /  0mm
17:09 28.0 °F /  -2.2 °C 23.8 °F /  -4.6 °C 29.76in /  1007.7hPa WSW 7.0mph /  11.3km/h 15.0mph /  24.1km/h 84% 0.00in /  0mm
17:14 28.0 °F /  -2.2 °C 23.8 °F /  -4.6 °C 29.76in /  1007.7hPa SW 5.0mph /  8km/h 15.0mph /  24.1km/h 84% 0.00in /  0mm
17:19 27.9 °F /  -2.3 °C 23.7 °F /  -4.6 °C 29.77in /  1008hPa WSW 7.0mph /  11.3km/h 15.0mph /  24.1km/h 84% 0.00in /  0mm
17:24 27.9 °F /  -2.3 °C 23.7 °F /  -4.6 °C 29.77in /  1008hPa SW 6.0mph /  9.7km/h 11.0mph /  17.7km/h 84% 0.00in /  0mm
17:29 27.8 °F /  -2.3 °C 23.6 °F /  -4.7 °C 29.76in /  1007.7hPa SW 7.0mph /  11.3km/h 15.0mph /  24.1km/h 84% 0.00in /  0mm
17:34 27.8 °F /  -2.3 °C 23.6 °F /  -4.7 °C 29.77in /  1008hPa WSW 5.0mph /  8km/h 13.0mph /  20.9km/h 84% 0.00in /  0mm
17:39 27.8 °F /  -2.3 °C 23.6 °F /  -4.7 °C 29.77in /  1008hPa SW 11.0mph /  17.7km/h 11.0mph /  17.7km/h 84% 0.00in /  0mm
17:44 27.8 °F /  -2.3 °C 23.6 °F /  -4.7 °C 29.77in /  1008hPa WSW 7.0mph /  11.3km/h 15.0mph /  24.1km/h 84% 0.00in /  0mm
17:49 27.8 °F /  -2.3 °C 23.6 °F /  -4.7 °C 29.77in /  1008hPa WSW 7.0mph /  11.3km/h 15.0mph /  24.1km/h 84% 0.00in /  0mm
17:54 27.8 °F /  -2.3 °C 23.9 °F /  -4.5 °C 29.77in /  1008hPa SW 7.0mph /  11.3km/h 12.0mph /  19.3km/h 85% 0.00in /  0mm
17:59 27.8 °F /  -2.3 °C 23.9 °F /  -4.5 °C 29.77in /  1008hPa WSW 6.0mph /  9.7km/h 12.0mph /  19.3km/h 85% 0.00in /  0mm
18:04 27.8 °F /  -2.3 °C 23.9 °F /  -4.5 °C 29.77in /  1008hPa WSW 6.0mph /  9.7km/h 11.0mph /  17.7km/h 85% 0.00in /  0mm
18:09 27.9 °F /  -2.3 °C 24.0 °F /  -4.4 °C 29.76in /  1007.7hPa SW 5.0mph /  8km/h 9.0mph /  14.5km/h 85% 0.00in /  0mm
18:14 27.9 °F /  -2.3 °C 24.0 °F /  -4.4 °C 29.76in /  1007.7hPa WSW 5.0mph /  8km/h 14.0mph /  22.5km/h 85% 0.00in /  0mm
18:19 27.9 °F /  -2.3 °C 24.0 °F /  -4.4 °C 29.76in /  1007.7hPa WSW 6.0mph /  9.7km/h 14.0mph /  22.5km/h 85% 0.00in /  0mm
18:24 28.0 °F /  -2.2 °C 24.1 °F /  -4.4 °C 29.76in /  1007.7hPa West 7.0mph /  11.3km/h 12.0mph /  19.3km/h 85% 0.00in /  0mm
18:29 28.0 °F /  -2.2 °C 24.1 °F /  -4.4 °C 29.76in /  1007.7hPa WSW 6.0mph /  9.7km/h 11.0mph /  17.7km/h 85% 0.00in /  0mm
18:34 27.9 °F /  -2.3 °C 24.0 °F /  -4.4 °C 29.76in /  1007.7hPa West 3.0mph /  4.8km/h 11.0mph /  17.7km/h 85% 0.00in /  0mm
18:39 28.0 °F /  -2.2 °C 24.1 °F /  -4.4 °C 29.77in /  1008hPa West 4.0mph /  6.4km/h 10.0mph /  16.1km/h 85% 0.00in /  0mm
18:44 28.0 °F /  -2.2 °C 24.1 °F /  -4.4 °C 29.76in /  1007.7hPa WSW 3.0mph /  4.8km/h 9.0mph /  14.5km/h 85% 0.00in /  0mm
18:49 28.0 °F /  -2.2 °C 24.4 °F /  -4.2 °C 29.76in /  1007.7hPa West 7.0mph /  11.3km/h 11.0mph /  17.7km/h 86% 0.00in /  0mm
18:54 28.1 °F /  -2.2 °C 24.5 °F /  -4.2 °C 29.76in /  1007.7hPa WSW 6.0mph /  9.7km/h 11.0mph /  17.7km/h 86% 0.00in /  0mm
18:59 28.2 °F /  -2.1 °C 24.6 °F /  -4.1 °C 29.76in /  1007.7hPa WSW 5.0mph /  8km/h 11.0mph /  17.7km/h 86% 0.00in /  0mm
19:04 28.2 °F /  -2.1 °C 24.6 °F /  -4.1 °C 29.76in /  1007.7hPa WSW 5.0mph /  8km/h 10.0mph /  16.1km/h 86% 0.00in /  0mm
19:09 28.3 °F /  -2.1 °C 24.6 °F /  -4.1 °C 29.76in /  1007.7hPa WSW 4.0mph /  6.4km/h 10.0mph /  16.1km/h 86% 0.00in /  0mm
19:14 28.3 °F /  -2.1 °C 24.6 °F /  -4.1 °C 29.76in /  1007.7hPa West 4.0mph /  6.4km/h 9.0mph /  14.5km/h 86% 0.00in /  0mm
19:19 28.4 °F /  -2 °C 24.7 °F /  -4.1 °C 29.76in /  1007.7hPa West 4.0mph /  6.4km/h 10.0mph /  16.1km/h 86% 0.00in /  0mm
19:24 28.3 °F /  -2.1 °C 24.6 °F /  -4.1 °C 29.76in /  1007.7hPa West 3.0mph /  4.8km/h 9.0mph /  14.5km/h 86% 0.00in /  0mm
19:29 28.3 °F /  -2.1 °C 24.6 °F /  -4.1 °C 29.76in /  1007.7hPa West 2.0mph /  3.2km/h 7.0mph /  11.3km/h 86% 0.00in /  0mm
19:34 28.3 °F /  -2.1 °C 24.6 °F /  -4.1 °C 29.76in /  1007.7hPa WSW 8.0mph /  12.9km/h 9.0mph /  14.5km/h 86% 0.00in /  0mm
19:39 28.3 °F /  -2.1 °C 24.6 °F /  -4.1 °C 29.76in /  1007.7hPa West 2.0mph /  3.2km/h 9.0mph /  14.5km/h 86% 0.00in /  0mm
19:44 28.4 °F /  -2 °C 24.7 °F /  -4.1 °C 29.76in /  1007.7hPa West 6.0mph /  9.7km/h 7.0mph /  11.3km/h 86% 0.00in /  0mm
19:49 28.3 °F /  -2.1 °C 24.6 °F /  -4.1 °C 29.76in /  1007.7hPa WSW 3.0mph /  4.8km/h 6.0mph /  9.7km/h 86% 0.00in /  0mm
19:54 28.2 °F /  -2.1 °C 24.6 °F /  -4.1 °C 29.75in /  1007.3hPa West 1.0mph /  1.6km/h 8.0mph /  12.9km/h 86% 0.00in /  0mm
19:59 28.0 °F /  -2.2 °C 24.4 °F /  -4.2 °C 29.75in /  1007.3hPa West 1.0mph /  1.6km/h 6.0mph /  9.7km/h 86% 0.00in /  0mm
20:04 27.8 °F /  -2.3 °C 24.2 °F /  -4.3 °C 29.75in /  1007.3hPa West 3.0mph /  4.8km/h 7.0mph /  11.3km/h 86% 0.00in /  0mm
20:09 27.7 °F /  -2.4 °C 24.1 °F /  -4.4 °C 29.76in /  1007.7hPa West 3.0mph /  4.8km/h 7.0mph /  11.3km/h 86% 0.00in /  0mm
20:14 27.6 °F /  -2.4 °C 24.0 °F /  -4.4 °C 29.75in /  1007.3hPa West 2.0mph /  3.2km/h 6.0mph /  9.7km/h 86% 0.00in /  0mm
20:19 27.5 °F /  -2.5 °C 23.9 °F /  -4.5 °C 29.75in /  1007.3hPa West 1.0mph /  1.6km/h 3.0mph /  4.8km/h 86% 0.00in /  0mm
20:24 27.4 °F /  -2.6 °C 23.8 °F /  -4.6 °C 29.75in /  1007.3hPa Calm   3.0mph /  4.8km/h 86% 0.00in /  0mm
20:29 27.4 °F /  -2.6 °C 23.8 °F /  -4.6 °C 29.75in /  1007.3hPa West 1.0mph /  1.6km/h 3.0mph /  4.8km/h 86% 0.00in /  0mm
20:34 27.4 °F /  -2.6 °C 23.8 °F /  -4.6 °C 29.75in /  1007.3hPa Calm   1.0mph /  1.6km/h 86% 0.00in /  0mm
20:39 27.3 °F /  -2.6 °C 23.7 °F /  -4.6 °C 29.74in /  1007hPa Calm   4.0mph /  6.4km/h 86% 0.00in /  0mm
20:44 27.1 °F /  -2.7 °C 23.5 °F /  -4.7 °C 29.74in /  1007hPa Calm   4.0mph /  6.4km/h 86% 0.00in /  0mm
20:49 26.9 °F /  -2.8 °C 23.0 °F /  -5 °C 29.74in /  1007hPa Calm   1.0mph /  1.6km/h 85% 0.00in /  0mm
20:54 27.0 °F /  -2.8 °C 23.1 °F /  -4.9 °C 29.74in /  1007hPa West 4.0mph /  6.4km/h 4.0mph /  6.4km/h 85% 0.00in /  0mm
20:59 26.8 °F /  -2.9 °C 22.6 °F /  -5.2 °C 29.74in /  1007hPa Calm   4.0mph /  6.4km/h 84% 0.00in /  0mm
21:04 26.7 °F /  -2.9 °C 22.5 °F /  -5.3 °C 29.74in /  1007hPa West 1.0mph /  1.6km/h 2.0mph /  3.2km/h 84% 0.00in /  0mm
21:09 26.5 °F /  -3.1 °C 22.3 °F /  -5.4 °C 29.74in /  1007hPa Calm   1.0mph /  1.6km/h 84% 0.00in /  0mm
21:14 26.4 °F /  -3.1 °C 22.2 °F /  -5.4 °C 29.74in /  1007hPa Calm   1.0mph /  1.6km/h 84% 0.00in /  0mm
21:19 26.1 °F /  -3.3 °C 21.9 °F /  -5.6 °C 29.73in /  1006.7hPa Calm     84% 0.00in /  0mm
21:24 25.6 °F /  -3.6 °C 21.2 °F /  -6 °C 29.73in /  1006.7hPa Calm     83% 0.00in /  0mm
21:29 25.0 °F /  -3.9 °C 20.8 °F /  -6.2 °C 29.73in /  1006.7hPa Calm     84% 0.00in /  0mm
21:34 24.7 °F /  -4.1 °C 20.6 °F /  -6.3 °C 29.73in /  1006.7hPa Calm     84% 0.00in /  0mm
21:39 24.7 °F /  -4.1 °C 20.8 °F /  -6.2 °C 29.73in /  1006.7hPa Calm     85% 0.00in /  0mm
21:44 24.6 °F /  -4.1 °C 20.7 °F /  -6.3 °C 29.73in /  1006.7hPa Calm     85% 0.00in /  0mm
21:49 24.5 °F /  -4.2 °C 20.6 °F /  -6.3 °C 29.73in /  1006.7hPa Calm     85% 0.00in /  0mm
21:54 24.2 °F /  -4.3 °C 20.3 °F /  -6.5 °C 29.73in /  1006.7hPa Calm     85% 0.00in /  0mm
21:59 24.0 °F /  -4.4 °C 20.1 °F /  -6.6 °C 29.73in /  1006.7hPa Calm     85% 0.00in /  0mm
22:04 23.6 °F /  -4.7 °C 19.8 °F /  -6.8 °C 29.73in /  1006.7hPa Calm     85% 0.00in /  0mm
22:09 23.2 °F /  -4.9 °C 19.4 °F /  -7 °C 29.73in /  1006.7hPa Calm     85% 0.00in /  0mm
22:14 22.9 °F /  -5.1 °C 19.3 °F /  -7.1 °C 29.73in /  1006.7hPa Calm     86% 0.00in /  0mm
22:19 22.5 °F /  -5.3 °C 18.9 °F /  -7.3 °C 29.73in /  1006.7hPa Calm     86% 0.00in /  0mm
22:24 22.4 °F /  -5.3 °C 18.8 °F /  -7.3 °C 29.73in /  1006.7hPa Calm     86% 0.00in /  0mm
22:29 22.2 °F /  -5.4 °C 18.7 °F /  -7.4 °C 29.73in /  1006.7hPa Calm     86% 0.00in /  0mm
22:34 22.1 °F /  -5.5 °C 18.8 °F /  -7.3 °C 29.72in /  1006.3hPa Calm     87% 0.00in /  0mm
22:39 22.0 °F /  -5.6 °C 18.7 °F /  -7.4 °C 29.72in /  1006.3hPa Calm     87% 0.00in /  0mm
22:44 22.0 °F /  -5.6 °C 18.7 °F /  -7.4 °C 29.73in /  1006.7hPa Calm     87% 0.00in /  0mm
22:49 21.9 °F /  -5.6 °C 18.6 °F /  -7.4 °C 29.72in /  1006.3hPa Calm     87% 0.00in /  0mm
22:54 21.8 °F /  -5.7 °C 18.5 °F /  -7.5 °C 29.72in /  1006.3hPa Calm     87% 0.00in /  0mm
22:59 21.6 °F /  -5.8 °C 18.3 °F /  -7.6 °C 29.72in /  1006.3hPa Calm     87% 0.00in /  0mm
23:04 21.5 °F /  -5.8 °C 18.5 °F /  -7.5 °C 29.72in /  1006.3hPa Calm     88% 0.00in /  0mm
23:09 21.4 °F /  -5.9 °C 18.4 °F /  -7.6 °C 29.72in /  1006.3hPa Calm     88% 0.00in /  0mm
23:14 21.2 °F /  -6 °C 18.2 °F /  -7.7 °C 29.72in /  1006.3hPa Calm     88% 0.00in /  0mm
23:19 21.2 °F /  -6 °C 18.2 °F /  -7.7 °C 29.72in /  1006.3hPa Calm     88% 0.00in /  0mm
23:24 21.2 °F /  -6 °C 18.2 °F /  -7.7 °C 29.72in /  1006.3hPa Calm     88% 0.00in /  0mm
23:29 21.2 °F /  -6 °C 18.2 °F /  -7.7 °C 29.72in /  1006.3hPa Calm     88% 0.00in /  0mm
23:34 20.9 °F /  -6.2 °C 17.9 °F /  -7.8 °C 29.72in /  1006.3hPa Calm     88% 0.00in /  0mm
23:39 20.9 °F /  -6.2 °C 17.9 °F /  -7.8 °C 29.72in /  1006.3hPa Calm     88% 0.00in /  0mm
23:44 21.4 °F /  -5.9 °C 18.7 °F /  -7.4 °C 29.72in /  1006.3hPa Calm     89% 0.00in /  0mm
23:49 21.9 °F /  -5.6 °C 19.2 °F /  -7.1 °C 29.72in /  1006.3hPa Calm     89% 0.00in /  0mm
23:54 22.5 °F /  -5.3 °C 19.7 °F /  -6.8 °C 29.72in /  1006.3hPa Calm     89% 0.00in /  0mm
23:59 23.1 °F /  -4.9 °C 20.3 °F /  -6.5 °C 29.72in /  1006.3hPa Calm     89% 0.00in /  0mm
Buffalo, New York, USA
Compliments of Weather Underground - 2.5 mb